Time;durP1;ratioP1;P1;durP2;ratioP2;P2;SDS_P1;SDS_P2;PMS_P1;PMS_P2;Temp;Humidity;BMP_temperature;BMP_pressure;BME280_temperature;BME280_humidity;BME280_pressure;Samples;Min_cycle;Max_cycle;Signal;HPM_P1;HPM_P2
2024/01/30 00:00:15;;;;;;;37.03;11.93;;;;;;;2.04;100.00;96140.63;6162322;23;19997;-88
2024/01/30 00:02:48;;;;;;;40.72;14.18;;;;;;;1.88;100.00;96135.53;6186077;23;20266;-88
2024/01/30 00:05:16;;;;;;;38.55;12.90;;;;;;;1.86;100.00;96135.69;6162581;23;20008;-88
2024/01/30 00:07:42;;;;;;;30.38;12.52;;;;;;;1.85;100.00;96141.81;6185931;23;20087;-88
2024/01/30 00:10:11;;;;;;;40.47;14.20;;;;;;;1.92;100.00;96136.78;6187314;23;20001;-89
2024/01/30 00:12:37;;;;;;;41.60;14.05;;;;;;;1.89;100.00;96142.31;6162204;23;20005;-88
2024/01/30 00:15:10;;;;;;;41.75;12.88;;;;;;;1.97;100.00;96135.31;6161262;23;20004;-88
2024/01/30 00:17:51;;;;;;;;;;;;;;;;;;;;;
2024/01/30 00:20:30;;;;;;;;;;;;;;;;;;;;;
2024/01/30 00:22:58;;;;;;;36.20;13.35;;;;;;;1.98;100.00;96124.00;6185674;23;20028;-88
2024/01/30 00:25:28;;;;;;;36.13;13.07;;;;;;;1.93;100.00;96126.25;6185961;23;19997;-88
2024/01/30 00:28:01;;;;;;;40.28;14.18;;;;;;;2.04;100.00;96127.69;6185979;23;20004;-88
2024/01/30 00:30:26;;;;;;;38.92;13.65;;;;;;;2.00;100.00;96128.19;6162662;23;19993;-88
2024/01/30 00:32:55;;;;;;;38.13;13.95;;;;;;;2.08;100.00;96121.19;6161194;23;20009;-88
2024/01/30 00:35:31;;;;;;;;;;;;;;;;;;;;;
2024/01/30 00:37:57;;;;;;;51.95;19.20;;;;;;;1.91;100.00;96117.09;6185959;23;20024;-88
2024/01/30 00:40:23;;;;;;;49.88;17.13;;;;;;;2.19;100.00;96125.16;6185654;23;20004;-88
2024/01/30 00:42:48;;;;;;;41.15;15.80;;;;;;;2.20;100.00;96120.81;6186123;23;20410;-89
2024/01/30 00:45:14;;;;;;;39.88;14.93;;;;;;;2.07;100.00;96122.16;6161202;23;20491;-88
2024/01/30 00:47:43;;;;;;;44.72;16.85;;;;;;;2.06;100.00;96122.31;6185402;23;20008;-88
2024/01/30 00:50:11;;;;;;;39.00;15.25;;;;;;;2.09;100.00;96122.00;6185823;23;19997;-88
2024/01/30 00:52:46;;;;;;;;;;;;;;;;;;;;;
2024/01/30 00:55:15;;;;;;;43.88;14.20;;;;;;;2.09;100.00;96120.22;6185473;23;20450;-88
2024/01/30 00:57:43;;;;;;;37.30;13.73;;;;;;;2.02;100.00;96129.63;6185761;23;20021;-88
2024/01/30 01:00:11;;;;;;;39.13;14.23;;;;;;;1.82;100.00;96129.25;6161432;23;20060;-88
2024/01/30 01:02:42;;;;;;;42.00;12.65;;;;;;;1.86;100.00;96138.25;6161718;23;20004;-88
2024/01/30 01:05:11;;;;;;;31.60;12.13;;;;;;;2.01;100.00;96124.63;6161580;23;20001;-88
2024/01/30 01:07:36;;;;;;;30.38;10.85;;;;;;;1.81;100.00;96135.38;6162073;23;20071;-88
2024/01/30 01:10:11;;;;;;;27.05;10.15;;;;;;;1.89;100.00;96134.53;6160585;23;20370;-88
2024/01/30 01:12:37;;;;;;;31.35;10.48;;;;;;;1.73;100.00;96135.41;6163287;23;20002;-88
2024/01/30 01:15:13;;;;;;;27.98;10.80;;;;;;;1.77;100.00;96126.34;6162524;23;19996;-88
2024/01/30 01:17:41;;;;;;;27.58;9.63;;;;;;;1.90;100.00;96138.75;6187586;23;19993;-88
2024/01/30 01:20:10;;;;;;;28.20;9.30;;;;;;;1.83;100.00;96128.25;6163357;23;20310;-88
2024/01/30 01:22:38;;;;;;;27.33;8.75;;;;;;;2.00;100.00;96128.97;6163027;23;20055;-89
2024/01/30 01:25:16;;;;;;;;;;;;;;;;;;;;;
2024/01/30 01:27:44;;;;;;;20.00;8.55;;;;;;;2.23;100.00;96129.03;6187351;23;20384;-88
2024/01/30 01:30:13;;;;;;;25.15;9.25;;;;;;;2.16;100.00;96128.09;6163450;23;20008;-88
2024/01/30 01:32:48;;;;;;;;;;;;;;;;;;;;;
2024/01/30 01:35:17;;;;;;;26.95;9.82;;;;;;;1.97;100.00;96134.50;6186992;23;20426;-88
2024/01/30 01:37:42;;;;;;;22.55;8.85;;;;;;;1.94;100.00;96122.72;6187587;23;19997;-88
2024/01/30 01:40:08;;;;;;;24.38;8.95;;;;;;;1.80;100.00;96129.41;6187269;23;20004;-88
2024/01/30 01:42:44;;;;;;;;;;;;;;;;;;;;;
2024/01/30 01:45:14;;;;;;;23.13;8.20;;;;;;;1.54;100.00;96125.28;6187394;23;20084;-88
2024/01/30 01:47:45;;;;;;;24.15;8.85;;;;;;;1.50;100.00;96121.44;6163818;23;20092;-88
2024/01/30 01:50:12;;;;;;;26.55;9.38;;;;;;;1.29;100.00;96123.72;6163816;23;20402;-88
2024/01/30 01:52:47;;;;;;;23.45;8.82;;;;;;;1.35;100.00;96130.84;6162312;23;20012;-88
2024/01/30 01:55:23;;;;;;;;;;;;;;;;;;;;;
2024/01/30 01:57:57;;;;;;;32.38;11.35;;;;;;;1.34;100.00;96126.66;6186958;23;20072;-88
2024/01/30 02:00:22;;;;;;;;;;;;;;;1.44;100.00;96132.44;6164711;23;20001;-89
2024/01/30 02:02:57;;;;;;;35.08;13.55;;;;;;;1.55;100.00;96134.66;6187300;23;19939;-89
2024/01/30 02:05:24;;;;;;;29.77;11.57;;;;;;;1.52;100.00;96127.22;6187156;23;20005;-88
2024/01/30 02:07:50;;;;;;;35.10;12.27;;;;;;;1.50;100.00;96131.75;6163124;23;20001;-88
2024/01/30 02:10:21;;;;;;;38.17;12.05;;;;;;;1.50;100.00;96130.94;6186846;23;20019;-89
2024/01/30 02:12:54;;;;;;;34.97;12.82;;;;;;;1.54;100.00;96122.69;6162215;23;20009;-89
2024/01/30 02:15:29;;;;;;;;;;;;;;;;;;;;;
2024/01/30 02:18:02;;;;;;;30.85;11.63;;;;;;;1.55;100.00;96120.94;6186111;23;20075;-88
2024/01/30 02:20:30;;;;;;;36.22;11.90;;;;;;;1.52;100.00;96127.22;6186850;23;20001;-88
2024/01/30 02:23:06;;;;;;;;;;;;;;;;;;;;;
2024/01/30 02:25:43;;;;;;;;;;;;;;;;;;;;;
2024/01/30 02:28:18;;;;;;;29.45;9.70;;;;;;;1.62;100.00;96116.69;6185870;23;20076;-89
2024/01/30 02:30:53;;;;;;;;;;;;;;;;;;;;;
2024/01/30 02:33:21;;;;;;;26.17;9.23;;;;;;;1.72;100.00;96113.91;6186890;23;20076;-89
2024/01/30 02:35:57;;;;;;;24.75;8.57;;;;;;;1.67;100.00;96111.03;6162594;23;19997;-88
2024/01/30 02:38:30;;;;;;;24.90;9.20;;;;;;;1.81;100.00;96119.88;6164319;23;20009;-89
2024/01/30 02:40:58;;;;;;;24.27;8.85;;;;;;;1.94;100.00;96109.81;6186901;23;20414;-88
2024/01/30 02:43:26;;;;;;;25.42;9.32;;;;;;;1.89;100.00;96112.06;6162594;23;20303;-88
2024/01/30 02:45:51;;;;;;;26.60;9.32;;;;;;;1.87;100.00;96102.91;6162434;23;20020;-88
2024/01/30 02:48:17;;;;;;;27.42;9.77;;;;;;;2.01;100.00;96099.59;6162090;23;20000;-89
2024/01/30 02:50:43;;;;;;;21.52;8.93;;;;;;;1.93;100.00;96099.63;6161777;23;20032;-89
2024/01/30 02:53:10;;;;;;;26.60;9.95;;;;;;;1.88;100.00;96100.13;6186377;23;20327;-88
2024/01/30 02:55:38;;;;;;;22.80;9.02;;;;;;;1.86;100.00;96096.91;6186635;23;20013;-88
2024/01/30 02:58:13;;;;;;;;;;;;;;;;;;;;;
2024/01/30 03:00:39;;;;;;;26.15;9.18;;;;;;;1.52;100.00;96108.38;6186131;23;20071;-88
2024/01/30 03:03:05;;;;;;;24.73;9.77;;;;;;;1.44;100.00;96096.28;6186532;23;20004;-88
2024/01/30 03:05:35;;;;;;;26.90;9.30;;;;;;;1.39;100.00;96099.34;6160665;23;20004;-89
2024/01/30 03:08:03;;;;;;;28.60;10.27;;;;;;;1.32;100.00;96103.56;6161999;23;20059;-88
2024/01/30 03:10:28;;;;;;;26.25;9.57;;;;;;;1.28;100.00;96094.53;6186185;23;20032;-89
2024/01/30 03:12:56;;;;;;;27.77;9.32;;;;;;;1.40;100.00;96094.97;6161612;23;20406;-88
2024/01/30 03:15:23;;;;;;;30.45;10.50;;;;;;;1.35;100.00;96094.69;6162183;23;20323;-88
2024/01/30 03:17:49;;;;;;;31.92;9.63;;;;;;;1.49;100.00;96091.41;6186825;23;19997;-89
2024/01/30 03:20:17;;;;;;;27.67;11.48;;;;;;;1.50;100.00;96087.84;6162030;23;19997;-89
2024/01/30 03:22:52;;;;;;;;;;;;;;;;;;;;;
2024/01/30 03:25:18;;;;;;;26.05;9.90;;;;;;;1.80;100.00;96085.47;6186081;23;20451;-88
2024/01/30 03:27:53;;;;;;;;;;;;;;;;;;;;;
2024/01/30 03:30:26;;;;;;;25.77;10.32;;;;;;;1.81;100.00;96075.94;6185894;23;20104;-88
2024/01/30 03:32:52;;;;;;;30.65;10.55;;;;;;;1.76;100.00;96076.44;6163429;23;20005;-89
2024/01/30 03:35:21;;;;;;;36.92;11.80;;;;;;;1.81;100.00;96081.91;6161138;23;20008;-89
2024/01/30 03:37:49;;;;;;;30.52;11.50;;;;;;;1.62;100.00;96077.16;6162047;23;20430;-88
2024/01/30 03:40:17;;;;;;;29.73;11.45;;;;;;;1.58;100.00;96081.03;6186089;23;19996;-88
2024/01/30 03:42:45;;;;;;;33.10;11.05;;;;;;;1.40;100.00;96082.06;6162098;23;19997;-88
2024/01/30 03:45:12;;;;;;;32.33;11.65;;;;;;;1.49;100.00;96085.41;6162419;23;20031;-88
2024/01/30 03:47:38;;;;;;;29.83;10.77;;;;;;;1.40;100.00;96074.31;6161837;23;20005;-88
2024/01/30 03:50:07;;;;;;;31.58;11.02;;;;;;;1.37;100.00;96074.66;6161201;23;20517;-88
2024/01/30 03:52:39;;;;;;;35.55;12.50;;;;;;;1.47;100.00;96080.44;6161895;23;20012;-88
2024/01/30 03:55:08;;;;;;;28.33;10.88;;;;;;;1.61;100.00;96070.38;6186196;23;19993;-88
2024/01/30 03:57:42;;;;;;;33.35;10.95;;;;;;;1.67;100.00;96077.44;6186016;23;20001;-88
2024/01/30 04:00:10;;;;;;;25.98;10.25;;;;;;;1.56;100.00;96078.63;6163202;23;20005;-88
2024/01/30 04:02:36;;;;;;;31.65;11.45;;;;;;;1.52;100.00;96072.19;6162329;23;19997;-88
2024/01/30 04:05:03;;;;;;;33.78;11.32;;;;;;;1.51;100.00;96073.16;6160609;23;20008;-88
2024/01/30 04:07:39;;;;;;;;;;;;;;;;;;;;;
2024/01/30 04:10:08;;;;;;;28.83;10.25;;;;;;;1.51;100.00;96073.16;6185628;23;20467;-88
2024/01/30 04:12:36;;;;;;;26.98;10.35;;;;;;;1.51;100.00;96073.16;6186049;23;20009;-89
2024/01/30 04:15:03;;;;;;;28.73;10.23;;;;;;;1.50;100.00;96074.94;6185928;23;20000;-89
2024/01/30 04:17:39;;;;;;;;;;;;;;;;;;;;;
2024/01/30 04:20:08;;;;;;;28.25;10.57;;;;;;;1.29;100.00;96078.06;6185836;23;20075;-89
2024/01/30 04:22:34;;;;;;;27.48;10.35;;;;;;;1.48;100.00;96071.72;6185769;23;20380;-88
2024/01/30 04:25:00;;;;;;;32.45;10.73;;;;;;;1.47;100.00;96067.53;6161367;23;20008;-88
2024/01/30 04:27:25;;;;;;;33.42;11.63;;;;;;;1.68;100.00;96071.31;6185847;23;20315;-88
2024/01/30 04:30:00;;;;;;;;;;;;;;;;;;;;;
2024/01/30 04:32:26;;;;;;;27.23;11.10;;;;;;;1.57;100.00;96071.66;6185482;23;20089;-88
2024/01/30 04:34:52;;;;;;;28.50;10.52;;;;;;;1.62;100.00;96072.00;6185704;23;19997;-88
2024/01/30 04:37:25;;;;;;;31.95;11.52;;;;;;;1.69;100.00;96078.91;6161275;23;20009;-88
2024/01/30 04:39:51;;;;;;;29.30;10.50;;;;;;;1.69;100.00;96068.56;6185922;23;19997;-88
2024/01/30 04:42:17;;;;;;;33.22;11.65;;;;;;;1.53;100.00;96061.69;6161403;23;19997;-88
2024/01/30 04:44:42;;;;;;;36.53;10.60;;;;;;;1.58;100.00;96062.94;6185617;23;20068;-89
2024/01/30 04:47:08;;;;;;;25.75;10.30;;;;;;;1.95;100.00;96069.22;6161344;23;20001;-88
2024/01/30 04:49:44;;;;;;;33.88;11.27;;;;;;;1.96;100.00;96066.47;6163395;23;20326;-88
2024/01/30 04:52:09;;;;;;;27.25;9.25;;;;;;;1.78;100.00;96071.09;6164982;23;20005;-88
2024/01/30 04:54:37;;;;;;;22.50;9.10;;;;;;;1.65;100.00;96063.91;6187500;23;20012;-87
2024/01/30 04:57:13;;;;;;;;;;;;;;;;;;;;;
2024/01/30 04:59:52;;;;;;;;;;;;;;;;;;;;;
2024/01/30 05:02:25;;;;;;;21.63;7.15;;;;;;;1.07;100.00;96067.47;6187630;23;20077;-88
2024/01/30 05:04:50;;;;;;;19.73;6.85;;;;;;;1.06;100.00;96070.22;6187739;23;20001;-88
2024/01/30 05:07:20;;;;;;;18.27;7.30;;;;;;;0.96;100.00;96078.94;6162916;23;19997;-87
2024/01/30 05:09:46;;;;;;;19.98;7.47;;;;;;;1.11;100.00;96071.34;6163288;23;20000;-87
2024/01/30 05:12:12;;;;;;;21.90;7.75;;;;;;;1.12;100.00;96078.13;6162125;23;19997;-87
2024/01/30 05:14:37;;;;;;;22.90;8.15;;;;;;;1.27;100.00;96080.81;6163037;23;20033;-89
2024/01/30 05:17:06;;;;;;;19.77;7.93;;;;;;;1.21;100.00;96075.50;6163102;23;20007;-89
2024/01/30 05:19:34;;;;;;;22.85;7.32;;;;;;;1.11;100.00;96081.66;6163820;23;20005;-89
2024/01/30 05:22:09;;;;;;;;;;;;;;;;;;;;;
2024/01/30 05:24:36;;;;;;;21.92;8.05;;;;;;;1.26;100.00;96084.38;6187688;23;20024;-90
2024/01/30 05:27:02;;;;;;;24.75;8.77;;;;;;;1.13;100.00;96084.06;6163125;23;20040;-90
2024/01/30 05:29:37;;;;;;;27.40;8.90;;;;;;;1.10;100.00;96084.41;6162945;23;20029;-89
2024/01/30 05:32:05;;;;;;;23.45;8.68;;;;;;;1.20;100.00;96090.19;6187626;23;20311;-89
2024/01/30 05:34:34;;;;;;;22.10;9.73;;;;;;;1.20;100.00;96081.63;6163717;23;20024;-90
2024/01/30 05:37:01;;;;;;;24.25;8.70;;;;;;;1.26;100.00;96086.94;6187129;23;20001;-89
2024/01/30 05:39:29;;;;;;;24.95;9.10;;;;;;;1.22;100.00;96092.59;6163630;23;20039;-88
2024/01/30 05:42:05;;;;;;;;;;;;;;;;;;;;;
2024/01/30 05:44:33;;;;;;;25.23;8.93;;;;;;;1.23;100.00;96083.91;6187084;23;20071;-88
2024/01/30 05:47:08;;;;;;;;;;;;;;;;;;;;;
2024/01/30 05:49:34;;;;;;;25.50;9.18;;;;;;;1.23;100.00;96084.69;6188162;23;20028;-87
2024/01/30 05:52:03;;;;;;;29.90;10.75;;;;;;;1.16;100.00;96093.28;6162166;23;20024;-87
2024/01/30 05:54:28;;;;;;;26.75;10.27;;;;;;;1.13;100.00;96096.97;6162111;23;20005;-87
2024/01/30 05:57:01;;;;;;;29.17;11.27;;;;;;;1.04;100.00;96090.25;6162552;23;20003;-87
2024/01/30 05:59:35;;;;;;;27.20;9.40;;;;;;;1.07;100.00;96095.06;6163758;23;20005;-88
2024/01/30 06:02:03;;;;;;;30.55;9.02;;;;;;;1.12;100.00;96087.63;6164417;23;20322;-89
2024/01/30 06:04:28;;;;;;;23.27;8.73;;;;;;;1.14;100.00;96093.44;6163488;23;20005;-89
2024/01/30 06:07:04;;;;;;;;;;;;;;;;;;;;;
2024/01/30 06:09:34;;;;;;;18.85;6.78;;;;;;;1.23;100.00;96089.06;6186820;23;20100;-87
2024/01/30 06:11:59;;;;;;;17.80;6.85;;;;;;;1.22;100.00;96088.25;6186845;23;20073;-87
2024/01/30 06:14:25;;;;;;;17.02;6.40;;;;;;;1.10;100.00;96090.41;6162439;23;20005;-87
2024/01/30 06:16:52;;;;;;;18.15;6.80;;;;;;;1.10;100.00;96095.56;6186732;23;20104;-87
2024/01/30 06:19:41;;;;;;;16.05;5.85;;;;;;;1.00;100.00;96094.91;6186715;23;20000;-87
2024/01/30 06:22:07;;;;;;;14.80;5.03;;;;;;;1.10;100.00;96089.56;6186807;23;20032;-87
2024/01/30 06:24:34;;;;;;;17.90;6.20;;;;;;;1.14;100.00;96093.44;6162314;23;20399;-87
2024/01/30 06:27:02;;;;;;;19.55;6.80;;;;;;;1.16;100.00;96095.84;6162666;23;20030;-87
2024/01/30 06:29:30;;;;;;;17.67;6.93;;;;;;;1.19;100.00;96098.91;6186596;23;20001;-87
2024/01/30 06:31:55;;;;;;;16.38;6.20;;;;;;;1.09;100.00;96096.53;6186301;23;20005;-86
2024/01/30 06:34:21;;;;;;;18.92;6.18;;;;;;;1.05;100.00;96105.53;6188540;23;20433;-87
2024/01/30 06:36:47;;;;;;;16.88;5.82;;;;;;;1.08;100.00;96101.84;6187843;23;20315;-86
2024/01/30 06:39:14;;;;;;;16.58;6.07;;;;;;;1.05;100.00;96108.13;6186351;23;20072;-86
2024/01/30 06:41:49;;;;;;;17.95;5.70;;;;;;;1.09;100.00;96106.84;6187674;23;20016;-86
2024/01/30 06:44:14;;;;;;;12.63;5.20;;;;;;;1.43;100.00;96115.31;6186631;23;20033;-86
2024/01/30 06:46:47;;;;;;;17.15;5.80;;;;;;;1.52;100.00;96116.91;6186265;23;20005;-86
2024/01/30 06:49:12;;;;;;;16.35;7.00;;;;;;;1.61;100.00;96116.88;6163101;23;20019;-86
2024/01/30 06:51:38;;;;;;;16.00;4.90;;;;;;;1.54;100.00;96114.94;6185427;23;20067;-86
2024/01/30 06:54:04;;;;;;;15.18;5.45;;;;;;;1.45;100.00;96112.56;6187477;23;20017;-86
2024/01/30 06:56:29;;;;;;;19.58;5.38;;;;;;;1.72;100.00;96102.78;6186146;23;20024;-86
2024/01/30 06:58:55;;;;;;;18.05;5.68;;;;;;;1.92;100.00;96103.19;6186153;23;20004;-86
2024/01/30 07:01:20;;;;;;;21.02;6.72;;;;;;;2.07;100.00;96105.84;6185893;23;20178;-86
2024/01/30 07:03:46;;;;;;;19.05;7.57;;;;;;;2.05;100.00;96111.19;6161345;23;19997;-87
2024/01/30 07:06:12;;;;;;;24.20;8.93;;;;;;;2.04;100.00;96114.75;6186599;23;20055;-86
2024/01/30 07:08:38;;;;;;;23.13;8.63;;;;;;;2.01;100.00;96120.28;6161764;23;20407;-86
2024/01/30 07:11:05;;;;;;;23.75;7.60;;;;;;;2.04;100.00;96117.34;6161074;23;20015;-86
2024/01/30 07:13:31;;;;;;;22.08;7.65;;;;;;;2.11;100.00;96114.88;6161406;23;20016;-86
2024/01/30 07:15:57;;;;;;;20.95;8.20;;;;;;;2.31;100.00;96125.59;6186263;23;20310;-87
2024/01/30 07:18:22;;;;;;;18.20;7.20;;;;;;;2.24;100.00;96122.88;6187733;23;20047;-86
2024/01/30 07:20:49;;;;;;;24.00;8.18;;;;;;;2.49;100.00;96122.72;6161531;23;20004;-86
2024/01/30 07:23:17;;;;;;;16.88;7.35;;;;;;;2.48;100.00;96122.91;6185873;23;19993;-86
2024/01/30 07:25:45;;;;;;;24.00;8.23;;;;;;;2.61;100.00;96130.06;6161648;23;20000;-86
2024/01/30 07:28:12;;;;;;;25.45;8.43;;;;;;;2.68;100.00;96126.63;6186104;23;20087;-86
2024/01/30 07:30:37;;;;;;;22.10;8.65;;;;;;;2.69;100.00;96128.22;6185730;23;20323;-86
2024/01/30 07:33:03;;;;;;;26.85;7.80;;;;;;;2.85;100.00;96130.88;6161172;23;20001;-86
2024/01/30 07:35:29;;;;;;;20.33;7.55;;;;;;;3.02;100.00;96128.97;6161255;23;20024;-86
2024/01/30 07:37:56;;;;;;;21.63;7.93;;;;;;;3.11;100.00;96133.88;6161290;23;19996;-86
2024/01/30 07:40:22;;;;;;;19.80;8.10;;;;;;;3.19;100.00;96134.78;6185693;23;20012;-86
2024/01/30 07:42:48;;;;;;;21.05;7.88;;;;;;;3.30;100.00;96138.72;6161207;23;19989;-86
2024/01/30 07:45:13;;;;;;;20.52;7.85;;;;;;;3.38;100.00;96143.81;6157339;23;20005;-86
2024/01/30 07:47:39;;;;;;;23.67;7.88;;;;;;;3.49;100.00;96139.97;6160888;23;19993;-86
2024/01/30 07:50:05;;;;;;;19.58;7.78;;;;;;;3.53;100.00;96149.03;6161467;23;20012;-86
2024/01/30 07:52:30;;;;;;;20.77;6.97;;;;;;;3.59;100.00;96144.94;6160829;23;20012;-86
2024/01/30 07:54:56;;;;;;;19.13;7.13;;;;;;;3.61;100.00;96145.53;6186216;23;20307;-86
2024/01/30 07:57:21;;;;;;;19.27;8.15;;;;;;;3.66;100.00;96156.16;6160978;23;20011;-86
2024/01/30 07:59:54;;;;;;;22.80;7.63;;;;;;;3.54;100.00;96159.19;6187466;23;20001;-86
2024/01/30 08:02:20;;;;;;;23.00;8.18;;;;;;;3.43;100.00;96159.63;6162440;23;19993;-86
2024/01/30 08:04:48;;;;;;;16.25;6.10;;;;;;;3.41;100.00;96160.81;6161484;23;20004;-86
2024/01/30 08:07:14;;;;;;;15.82;6.72;;;;;;;3.41;100.00;96148.66;6161601;23;20000;-86
2024/01/30 08:09:41;;;;;;;15.63;6.30;;;;;;;3.58;100.00;96153.66;6186217;23;20005;-86
2024/01/30 08:12:07;;;;;;;16.38;6.22;;;;;;;3.75;100.00;96157.69;6185403;23;20003;-86
2024/01/30 08:14:32;;;;;;;13.85;6.38;;;;;;;3.79;100.00;96160.72;6185436;23;20025;-86
2024/01/30 08:16:58;;;;;;;15.75;6.95;;;;;;;3.93;100.00;96153.94;6161009;23;20043;-86
2024/01/30 08:19:25;;;;;;;18.58;6.97;;;;;;;4.04;100.00;96156.06;6185527;23;19997;-86
2024/01/30 08:21:51;;;;;;;16.83;6.70;;;;;;;4.04;100.00;96144.88;6185292;23;20055;-86
2024/01/30 08:24:21;;;;;;;17.90;6.78;;;;;;;4.17;100.00;96152.03;6185423;23;19997;-86
2024/01/30 08:26:49;;;;;;;16.38;6.45;;;;;;;4.19;100.00;96160.41;6161765;23;20001;-86
2024/01/30 08:29:14;;;;;;;15.43;6.15;;;;;;;4.24;100.00;96152.88;6161738;23;20474;-86
2024/01/30 08:31:39;;;;;;;15.27;6.68;;;;;;;4.39;100.00;96151.06;6161083;23;20001;-86
2024/01/30 08:34:07;;;;;;;19.23;6.78;;;;;;;4.44;100.00;96154.88;6160753;23;20009;-86
2024/01/30 08:36:32;;;;;;;14.98;6.15;;;;;;;4.48;100.00;96156.13;6161208;23;20033;-86
2024/01/30 08:38:58;;;;;;;15.85;5.82;;;;;;;4.55;100.00;96162.19;6160496;23;20386;-86
2024/01/30 08:41:23;;;;;;;14.02;5.95;;;;;;;4.80;100.00;96159.25;6185282;23;20004;-86
2024/01/30 08:43:51;;;;;;;17.20;6.45;;;;;;;4.90;100.00;96154.53;6185339;23;19997;-86
2024/01/30 08:46:20;;;;;;;14.20;5.68;;;;;;;5.11;100.00;96149.50;6186882;23;20004;-86
2024/01/30 08:48:46;;;;;;;20.13;6.15;;;;;;;5.18;100.00;96153.75;6160889;23;20011;-86
2024/01/30 08:51:12;;;;;;;14.45;5.82;;;;;;;5.33;100.00;96155.47;6160647;23;20009;-86
2024/01/30 08:53:37;;;;;;;17.40;6.68;;;;;;;5.42;100.00;96148.31;6160622;23;20084;-86
2024/01/30 08:56:08;;;;;;;16.35;6.65;;;;;;;5.36;100.00;96157.69;6160742;23;20100;-86
2024/01/30 08:58:33;;;;;;;17.20;6.43;;;;;;;5.57;100.00;96153.41;6161175;23;19997;-86
2024/01/30 09:00:59;;;;;;;12.75;5.70;;;;;;;5.51;100.00;96155.78;6160625;23;20426;-87
2024/01/30 09:03:24;;;;;;;13.77;5.70;;;;;;;5.45;100.00;96160.94;6161087;23;20023;-87
2024/01/30 09:05:50;;;;;;;16.35;6.00;;;;;;;5.50;100.00;96159.38;6185602;23;20001;-86
2024/01/30 09:08:15;;;;;;;16.52;6.10;;;;;;;5.69;100.00;96158.88;6185143;23;20354;-87
2024/01/30 09:10:41;;;;;;;14.60;5.68;;;;;;;5.82;100.00;96163.34;6185557;23;20058;-87
2024/01/30 09:13:08;;;;;;;15.05;5.60;;;;;;;5.88;100.00;96167.78;6185223;23;20033;-87
2024/01/30 09:15:41;;;;;;;17.13;6.15;;;;;;;5.88;98.00;96163.38;6185675;23;20048;-86
2024/01/30 09:18:08;;;;;;;17.27;6.15;;;;;;;5.96;94.57;96164.25;6185410;23;20315;-86
2024/01/30 09:20:34;;;;;;;13.55;5.72;;;;;;;6.04;97.27;96169.28;6161398;23;20001;-87
2024/01/30 09:23:02;;;;;;;16.10;6.10;;;;;;;6.06;99.32;96165.50;6161369;23;19990;-87
2024/01/30 09:25:27;;;;;;;15.30;5.97;;;;;;;6.04;97.71;96171.91;6161485;23;20004;-87
2024/01/30 09:27:53;;;;;;;15.75;6.05;;;;;;;6.05;95.55;96163.91;6186177;23;20450;-87
2024/01/30 09:30:18;;;;;;;15.05;5.43;;;;;;;5.99;95.93;96164.63;6160838;23;20415;-87
2024/01/30 09:32:44;;;;;;;13.05;5.68;;;;;;;6.03;96.23;96165.09;6185377;23;19997;-86
2024/01/30 09:35:09;;;;;;;11.90;5.13;;;;;;;6.10;97.54;96168.53;6162459;23;20005;-86
2024/01/30 09:37:35;;;;;;;14.38;5.43;;;;;;;6.16;93.29;96169.53;6162371;23;20001;-86
2024/01/30 09:40:00;;;;;;;11.85;5.38;;;;;;;6.15;95.44;96170.53;6162682;23;20409;-87
2024/01/30 09:42:37;;;;;;;15.93;5.88;;;;;;;6.26;90.14;96172.56;6162904;23;20335;-86
2024/01/30 09:45:04;;;;;;;13.23;5.82;;;;;;;6.32;90.88;96169.22;6162919;23;20012;-86
2024/01/30 09:47:41;;;;;;;12.63;5.70;;;;;;;6.24;86.78;96166.78;6186879;23;19996;-86
2024/01/30 09:50:10;;;;;;;19.90;6.75;;;;;;;6.32;84.33;96169.22;6186931;23;20119;-86
2024/01/30 09:52:38;;;;;;;13.45;5.13;;;;;;;6.26;89.63;96169.97;6162646;23;20008;-87
2024/01/30 09:55:05;;;;;;;14.07;5.78;;;;;;;6.19;86.22;96169.16;6187223;23;20004;-87
2024/01/30 09:57:30;;;;;;;13.80;5.38;;;;;;;6.24;89.97;96164.16;6162026;23;20084;-86
2024/01/30 09:59:56;;;;;;;12.18;5.18;;;;;;;6.26;94.21;96169.97;6162118;23;20001;-86
2024/01/30 10:02:22;;;;;;;13.10;5.35;;;;;;;6.27;94.97;96163.78;6161905;23;20051;-86
2024/01/30 10:04:51;;;;;;;13.23;5.80;;;;;;;6.32;95.19;96166.63;6186642;23;20001;-87
2024/01/30 10:07:20;;;;;;;12.23;5.50;;;;;;;6.36;91.39;96165.22;6162406;23;20000;-86
2024/01/30 10:09:47;;;;;;;15.85;6.22;;;;;;;6.34;90.12;96167.22;6162562;23;20012;-86
2024/01/30 10:12:13;;;;;;;11.55;5.22;;;;;;;6.38;91.47;96166.81;6161865;23;20048;-86
2024/01/30 10:14:39;;;;;;;11.25;4.75;;;;;;;6.42;95.49;96160.22;6187018;23;20001;-86
2024/01/30 10:17:05;;;;;;;10.90;5.03;;;;;;;6.58;89.19;96153.84;6161997;23;19997;-86
2024/01/30 10:19:32;;;;;;;9.95;4.13;;;;;;;6.65;85.24;96152.88;6162166;23;20128;-86
2024/01/30 10:22:00;;;;;;;11.73;4.28;;;;;;;6.65;84.04;96154.66;6161828;23;20005;-86
2024/01/30 10:24:26;;;;;;;9.00;4.45;;;;;;;6.74;81.38;96153.47;6162344;23;19997;-86
2024/01/30 10:26:51;;;;;;;9.75;4.22;;;;;;;6.98;82.94;96140.06;6186889;23;20001;-87
2024/01/30 10:29:17;;;;;;;10.90;4.88;;;;;;;7.16;80.29;96139.47;6162285;23;20009;-86
2024/01/30 10:31:43;;;;;;;14.15;5.50;;;;;;;7.20;80.21;96146.69;6161742;23;20001;-86
2024/01/30 10:34:11;;;;;;;16.40;5.38;;;;;;;7.33;82.25;96143.25;6186385;23;20430;-86
2024/01/30 10:36:43;;;;;;;11.23;5.38;;;;;;;7.55;79.15;96140.44;6186368;23;20407;-86
2024/01/30 10:39:09;;;;;;;11.20;5.30;;;;;;;7.65;81.96;96140.00;6162420;23;20063;-87
2024/01/30 10:41:41;;;;;;;14.93;5.25;;;;;;;7.72;80.41;96140.00;6161590;23;19997;-87
2024/01/30 10:44:09;;;;;;;10.68;4.50;;;;;;;7.81;80.89;96138.75;6162085;23;20418;-87
2024/01/30 10:46:35;;;;;;;12.63;5.32;;;;;;;7.78;77.80;96129.53;6161960;23;20020;-87
2024/01/30 10:49:01;;;;;;;13.18;4.80;;;;;;;7.95;76.09;96129.06;6162247;23;20032;-86
2024/01/30 10:51:27;;;;;;;10.55;4.95;;;;;;;8.04;77.05;96137.47;6186343;23;20001;-87
2024/01/30 10:53:53;;;;;;;11.70;4.93;;;;;;;8.08;77.23;96125.59;6186466;23;20009;-86
2024/01/30 10:56:21;;;;;;;11.30;4.47;;;;;;;8.18;79.61;96131.19;6162186;23;20016;-86
2024/01/30 10:58:48;;;;;;;11.68;5.07;;;;;;;8.29;77.99;96123.72;6161501;23;20005;-87
2024/01/30 11:01:24;;;;;;;;;;;;;;;;;;;;;
2024/01/30 11:03:53;;;;;;;13.48;5.88;;;;;;;8.57;78.15;96120.75;6186321;23;20381;-86
2024/01/30 11:06:22;;;;;;;14.05;4.90;;;;;;;8.61;77.18;96121.94;6161566;23;20102;-87
2024/01/30 11:09:04;;;;;;;12.25;5.45;;;;;;;8.49;76.26;96111.31;6162159;23;20289;-87
2024/01/30 11:11:29;;;;;;;12.85;5.22;;;;;;;8.71;76.14;96105.81;6186511;23;20071;-88
2024/01/30 11:14:02;;;;;;;12.10;5.32;;;;;;;8.74;78.95;96091.50;6186244;23;20052;-87
2024/01/30 11:16:34;;;;;;;13.73;5.43;;;;;;;8.63;78.01;96092.97;6163682;23;20005;-87
2024/01/30 11:19:02;;;;;;;14.65;6.15;;;;;;;8.82;77.30;96088.63;6162005;23;20405;-87
2024/01/30 11:21:28;;;;;;;17.52;6.13;;;;;;;8.89;77.98;96086.78;6186188;23;20457;-87
2024/01/30 11:23:55;;;;;;;16.75;6.93;;;;;;;9.01;76.28;96088.66;6187694;23;20001;-87
2024/01/30 11:26:27;;;;;;;15.00;6.40;;;;;;;9.22;76.50;96081.47;6186311;23;19997;-87
2024/01/30 11:28:53;;;;;;;19.40;6.57;;;;;;;9.11;76.10;96080.31;6186706;23;20000;-87
2024/01/30 11:31:19;;;;;;;16.67;7.10;;;;;;;9.07;74.73;96077.38;6186103;23;20409;-86
2024/01/30 11:33:44;;;;;;;18.92;6.65;;;;;;;9.05;75.57;96076.78;6161223;23;20009;-87
2024/01/30 11:36:11;;;;;;;17.75;7.15;;;;;;;9.09;77.48;96083.19;6161594;23;20311;-87
2024/01/30 11:38:39;;;;;;;14.25;6.43;;;;;;;9.14;77.80;96078.09;6161570;23;20008;-87
2024/01/30 11:41:04;;;;;;;17.33;7.63;;;;;;;9.26;75.45;96075.59;6186073;23;20012;-87
2024/01/30 11:43:30;;;;;;;19.88;7.88;;;;;;;9.39;79.39;96079.06;6186114;23;20028;-86
2024/01/30 11:45:55;;;;;;;21.60;8.25;;;;;;;9.30;76.55;96075.94;6161420;23;20284;-87
2024/01/30 11:48:23;;;;;;;21.30;8.10;;;;;;;9.26;77.09;96077.38;6186076;23;20338;-87
2024/01/30 11:50:50;;;;;;;18.80;8.07;;;;;;;9.17;79.74;96075.03;6161782;23;20008;-87
2024/01/30 11:53:18;;;;;;;23.80;8.73;;;;;;;9.26;76.43;96066.94;6161625;23;20009;-87
2024/01/30 11:55:50;;;;;;;20.60;8.60;;;;;;;9.14;76.53;96064.22;6161810;23;20059;-87
2024/01/30 11:58:15;;;;;;;19.67;8.60;;;;;;;9.07;77.13;96056.44;6160606;23;20005;-87
2024/01/30 12:00:43;;;;;;;19.65;7.65;;;;;;;9.17;74.48;96056.75;6161686;23;20001;-87